Weather at Fairchild Air Force Base

Public forecast

Using degrees Fahrenheit for public forecast. Weather courtesy of forecast.io.

Current aviation weather report (METAR) for Fairchild Air Force Base

2024/05/28 23:55 (retrieved 25 minutes ago)

KSKA 282355Z 25016KT 10SM BKN060 19/03 A2993 RMK AO2A SLP127 60001 T01920034 10222 20157 53001

Aviation forecast (TAF) for Fairchild Air Force Base

2024/05/28 19:06 (retrieved 5 hours ago)

TAF KSKA 281900Z 2819/3001 23009KT 9999 VCSH SCT030 BKN060 BKN100 610809 QNH2992INS WND 23012G18KT AFT 2821 TEMPO 2819/2824 VRB15G25KT 8000 -TSRA BKN030CB OVC100 BECMG 2902/2903 23012KT 9999 NSW FEW030 SCT060 BKN200 QNH2995INS BECMG 2915/2916 22015G25KT 9999 SCT040 BKN100 QNH3014INS TX20/2822Z TN06/2912Z